Time;durP1;ratioP1;P1;durP2;ratioP2;P2;SDS_P1;SDS_P2;PMS_P1;PMS_P2;Temp;Humidity;BMP_temperature;BMP_pressure;BME280_temperature;BME280_humidity;BME280_pressure;Samples;Min_cycle;Max_cycle;Signal;HPM_P1;HPM_P2
2022/10/17 00:01:03;;;;;;;2.70;2.50;;;;;;;14.56;83.48;99387.13;5094101;28;41581;-78
2022/10/17 00:03:31;;;;;;;3.83;3.10;;;;;;;14.54;83.32;99381.03;5094426;28;45266;-85
2022/10/17 00:06:05;;;;;;;4.33;2.70;;;;;;;14.52;83.16;99377.63;5112676;28;42425;-82
2022/10/17 00:08:33;;;;;;;3.50;2.63;;;;;;;14.37;83.25;99362.69;5096135;28;38642;-76
2022/10/17 00:11:03;;;;;;;2.37;2.17;;;;;;;14.49;83.05;99382.31;5122139;28;42307;-80
2022/10/17 00:13:31;;;;;;;2.80;2.60;;;;;;;14.46;83.46;99383.41;5120052;28;42771;-78
2022/10/17 00:15:59;;;;;;;2.90;2.60;;;;;;;14.44;82.96;99387.97;5121508;28;43633;-80
2022/10/17 00:18:27;;;;;;;2.60;2.40;;;;;;;14.42;83.36;99395.22;5120002;28;39244;-78
2022/10/17 00:20:54;;;;;;;2.80;2.60;;;;;;;14.39;83.46;99392.75;5102931;28;40655;-77
2022/10/17 00:23:26;;;;;;;3.20;2.90;;;;;;;14.37;83.50;99403.50;5120833;28;43862;-80
2022/10/17 00:26:00;;;;;;;2.60;2.40;;;;;;;14.35;83.42;99402.75;5112559;28;40993;-80
2022/10/17 00:28:28;;;;;;;2.57;2.37;;;;;;;14.34;83.12;99405.53;5112920;28;40775;-80
2022/10/17 00:30:58;;;;;;;2.87;2.67;;;;;;;14.31;83.25;99408.41;5112406;28;41595;-82
2022/10/17 00:33:26;;;;;;;6.97;3.13;;;;;;;14.17;83.35;99390.72;5109783;28;41831;-80
2022/10/17 00:36:02;;;;;;;3.03;2.70;;;;;;;14.27;84.03;99401.56;5111192;28;42081;-79
2022/10/17 00:38:31;;;;;;;3.53;2.90;;;;;;;14.24;83.87;99405.31;5093659;28;40488;-87
2022/10/17 00:40:59;;;;;;;3.27;2.97;;;;;;;14.22;83.87;99401.88;5110910;28;41541;-82
2022/10/17 00:43:28;;;;;;;3.30;3.00;;;;;;;14.10;83.72;99385.88;5111028;28;42954;-80
2022/10/17 00:45:56;;;;;;;3.93;2.97;;;;;;;14.21;83.89;99415.34;5093700;28;42223;-81
2022/10/17 00:48:26;;;;;;;3.13;2.80;;;;;;;14.11;83.65;99403.56;5110362;28;42068;-79
2022/10/17 00:50:53;;;;;;;3.00;2.67;;;;;;;14.17;83.34;99406.69;5110603;28;40446;-79
2022/10/17 00:53:21;;;;;;;3.17;2.83;;;;;;;14.16;83.60;99409.47;5093193;28;41770;-83
2022/10/17 00:55:53;;;;;;;3.43;2.90;;;;;;;14.13;83.71;99413.19;5093624;28;41957;-77
2022/10/17 00:58:21;;;;;;;4.27;3.10;;;;;;;14.09;83.36;99421.50;5109101;28;41071;-79
2022/10/17 01:00:49;;;;;;;4.83;2.67;;;;;;;14.05;83.20;99422.66;5110359;28;41720;-77
2022/10/17 01:03:16;;;;;;;3.10;2.90;;;;;;;14.01;83.31;99430.84;5093025;28;41766;-80
2022/10/17 01:05:44;;;;;;;4.00;2.60;;;;;;;13.97;83.23;99440.00;5110483;28;42956;-83
2022/10/17 01:08:13;;;;;;;4.57;2.53;;;;;;;13.93;82.87;99435.84;5093094;28;39903;-80
2022/10/17 01:10:52;;;;;;;2.90;2.67;;;;;;;13.90;83.21;99435.19;5093229;28;40570;-83
2022/10/17 01:13:26;;;;;;;3.23;2.93;;;;;;;13.88;83.12;99435.28;5108503;28;42801;-81
2022/10/17 01:16:06;;;;;;;2.63;2.17;;;;;;;13.85;83.21;99430.16;5107276;28;43162;-81
2022/10/17 01:18:49;;;;;;;3.10;2.80;;;;;;;13.82;83.35;99438.38;5093449;28;38919;-80
2022/10/17 01:21:31;;;;;;;3.17;2.87;;;;;;;13.79;83.64;99430.59;5109941;28;40443;-83
2022/10/17 01:24:44;;;;;;;4.87;3.00;;;;;;;13.76;83.56;99421.94;5094365;28;41861;-83
2022/10/17 01:27:29;;;;;;;3.30;3.00;;;;;;;13.75;83.57;99423.75;5111297;28;42716;-80
2022/10/17 01:30:17;;;;;;;2.70;2.50;;;;;;;13.76;83.39;99424.59;5097633;28;39985;-81
2022/10/17 01:32:50;;;;;;;3.37;2.20;;;;;;;13.74;83.34;99427.34;5111474;28;41872;-82
2022/10/17 01:35:25;;;;;;;3.23;2.43;;;;;;;13.75;83.40;99426.41;5114716;28;42544;-82
2022/10/17 01:37:58;;;;;;;3.50;1.80;;;;;;;13.74;83.46;99427.34;5111558;28;42260;-82
2022/10/17 01:40:30;;;;;;;4.03;2.37;;;;;;;13.72;83.35;99426.63;5097821;28;38744;-80
2022/10/17 01:43:05;;;;;;;2.40;2.23;;;;;;;13.71;83.43;99432.91;5097344;28;41661;-81
2022/10/17 01:45:37;;;;;;;2.80;2.00;;;;;;;13.70;83.19;99425.88;5097553;28;43400;-83
2022/10/17 01:48:14;;;;;;;2.50;2.30;;;;;;;13.69;83.06;99424.16;5097374;28;40752;-82
2022/10/17 01:50:47;;;;;;;2.57;2.37;;;;;;;13.68;83.05;99437.56;5097443;28;38936;-78
2022/10/17 01:53:22;;;;;;;2.50;2.30;;;;;;;13.40;83.31;99396.78;5095210;28;40670;-78
2022/10/17 01:55:54;;;;;;;2.10;2.00;;;;;;;13.62;83.33;99438.81;5110405;28;42831;-85
2022/10/17 01:58:27;;;;;;;3.30;2.97;;;;;;;13.62;83.08;99433.50;5113142;28;41901;-83
2022/10/17 02:00:57;;;;;;;2.70;2.50;;;;;;;13.49;83.11;99422.78;5110140;28;39928;-79
2022/10/17 08:55:02;;;;;;;4.53;3.17;;;;;;;21.96;68.81;99638.69;5166005;27;20538;-79
2022/10/17 08:57:30;;;;;;;5.57;3.43;;;;;;;21.98;68.42;99642.09;5148505;27;39900;-81
2022/10/17 08:59:57;;;;;;;4.63;3.33;;;;;;;22.10;66.71;99651.72;5148786;27;41948;-81
2022/10/17 09:02:47;;;;;;;4.70;3.87;;;;;;;22.22;65.86;99650.53;5148239;27;41897;-78
2022/10/17 09:05:28;;;;;;;4.53;3.60;;;;;;;22.84;64.69;99655.09;5131046;27;43221;-79
2022/10/17 09:08:05;;;;;;;4.33;3.47;;;;;;;23.80;61.87;99657.88;5148897;27;39770;-85
2022/10/17 09:10:46;;;;;;;3.53;3.23;;;;;;;23.92;61.48;99652.03;5147715;27;42721;-78
2022/10/17 09:13:25;;;;;;;4.27;3.87;;;;;;;24.76;59.34;99663.84;5132159;27;41710;-82
2022/10/17 09:16:06;;;;;;;4.87;3.07;;;;;;;26.21;54.90;99667.47;5149322;27;41394;-82
2022/10/17 09:18:37;;;;;;;3.43;2.60;;;;;;;26.73;53.07;99665.84;5132859;27;39277;-78
2022/10/17 09:21:17;;;;;;;3.63;2.80;;;;;;;26.01;54.25;99667.88;5144741;27;40746;-80
2022/10/17 09:23:49;;;;;;;3.57;2.90;;;;;;;25.35;55.36;99660.84;5158939;27;41521;-78
2022/10/17 09:26:18;;;;;;;5.10;3.23;;;;;;;24.87;57.50;99645.38;5161828;27;41040;-79
2022/10/17 09:28:52;;;;;;;3.63;3.30;;;;;;;24.60;57.89;99648.41;5161753;27;41272;-79
2022/10/17 09:31:23;;;;;;;6.27;3.60;;;;;;;24.38;59.21;99638.19;5158640;27;42151;-77
2022/10/17 09:33:52;;;;;;;6.20;3.70;;;;;;;24.34;59.71;99634.97;5158655;27;44310;-82
2022/10/17 09:36:23;;;;;;;4.67;3.13;;;;;;;24.45;59.85;99629.25;5148721;27;40748;-79
2022/10/17 09:38:55;;;;;;;4.33;3.57;;;;;;;24.72;59.56;99630.00;5146813;27;38976;-81
2022/10/17 09:41:30;;;;;;;3.27;2.90;;;;;;;24.93;57.94;99638.50;5145943;27;41753;-81
2022/10/17 09:43:59;;;;;;;4.83;2.97;;;;;;;25.21;58.09;99620.03;5148118;27;41860;-81
2022/10/17 09:46:32;;;;;;;3.57;2.83;;;;;;;25.50;58.04;99608.63;5130670;27;41414;-82
2022/10/17 09:49:05;;;;;;;5.23;2.60;;;;;;;25.52;57.00;99612.00;5147780;27;39693;-78
2022/10/17 09:51:32;;;;;;;3.83;2.60;;;;;;;25.76;56.35;99625.53;5147684;27;40910;-80
2022/10/17 09:54:03;;;;;;;4.67;2.70;;;;;;;26.31;55.74;99613.81;5129969;27;42043;-78
2022/10/17 09:56:59;;;;;;;2.37;2.00;;;;;;;27.21;54.55;99623.03;5147831;27;41132;-87
2022/10/17 09:59:32;;;;;;;2.47;2.27;;;;;;;27.45;53.39;99622.78;5147170;27;40582;-86
2022/10/17 10:02:16;;;;;;;4.37;2.37;;;;;;;27.95;52.12;99629.41;5147505;27;42216;-81
2022/10/17 10:04:55;;;;;;;3.07;2.37;;;;;;;28.26;50.93;99628.41;5125602;27;42819;-82
2022/10/17 10:07:24;;;;;;;2.30;2.10;;;;;;;28.44;48.13;99637.00;5116516;27;41850;-84
2022/10/17 10:09:52;;;;;;;3.07;2.07;;;;;;;28.87;47.26;99640.66;5133831;27;38688;-84
2022/10/17 10:12:24;;;;;;;2.10;1.90;;;;;;;29.16;47.38;99647.88;5133829;27;41641;-78
2022/10/17 10:14:52;;;;;;;2.20;1.90;;;;;;;29.37;46.70;99649.72;5117348;27;41240;-82
2022/10/17 10:17:41;;;;;;;2.03;1.77;;;;;;;29.50;45.65;99658.88;5118269;27;41436;-83
2022/10/17 10:20:28;;;;;;;3.30;1.80;;;;;;;29.77;47.33;99645.44;5130235;27;40008;-77
2022/10/17 10:23:16;;;;;;;1.67;1.57;;;;;;;30.47;44.94;99653.38;5134156;27;40831;-76
2022/10/17 10:25:55;;;;;;;2.00;1.80;;;;;;;31.28;43.20;99661.63;5116822;27;41174;-81
2022/10/17 10:28:28;;;;;;;2.87;2.10;;;;;;;32.97;41.29;99674.28;5131454;27;42261;-81
2022/10/17 10:30:57;;;;;;;2.20;2.00;;;;;;;34.28;36.89;99699.00;5130454;27;39873;-81
2022/10/17 10:33:29;;;;;;;3.53;1.60;;;;;;;35.82;35.11;99717.59;5134034;27;41557;-82
2022/10/17 10:36:00;;;;;;;3.00;1.58;;;;;;;36.94;33.92;99731.16;5116486;27;41834;-80
2022/10/17 10:38:29;;;;;;;3.22;1.65;;;;;;;37.49;33.77;99727.75;5132831;27;41191;-81
2022/10/17 10:41:03;;;;;;;4.47;1.75;;;;;;;38.13;32.63;99734.66;5133499;27;38787;-87
2022/10/17 10:43:36;;;;;;;3.65;1.80;;;;;;;38.49;32.06;99738.78;5131248;27;42496;-85
2022/10/17 10:46:16;;;;;;;3.83;1.60;;;;;;;38.79;31.03;99744.75;5116902;27;42082;-82
2022/10/17 10:48:51;;;;;;;3.22;1.80;;;;;;;39.71;29.71;99729.06;5131747;27;42197;-83
2022/10/17 10:51:25;;;;;;;4.95;1.52;;;;;;;40.60;30.11;99731.91;5116530;27;40225;-82
2022/10/17 10:54:01;;;;;;;1.92;1.52;;;;;;;40.86;28.24;99733.72;5115644;27;42948;-83
2022/10/17 10:56:34;;;;;;;2.35;1.40;;;;;;;40.78;29.12;99728.69;5116060;27;41752;-83
2022/10/17 10:59:14;;;;;;;1.85;1.40;;;;;;;41.39;27.51;99712.19;5133125;27;42563;-85
2022/10/17 11:01:49;;;;;;;4.00;1.63;;;;;;;42.34;26.17;99722.69;5116030;27;40079;-82
2022/10/17 11:04:30;;;;;;;3.47;1.30;;;;;;;43.04;25.62;99720.75;5115848;27;41035;-85
2022/10/17 11:07:03;;;;;;;3.90;1.42;;;;;;;43.18;25.70;99727.38;5115834;27;43068;-84
2022/10/17 11:09:46;;;;;;;1.58;1.40;;;;;;;42.84;25.04;99719.75;5115512;27;42455;-84
2022/10/17 11:12:20;;;;;;;2.35;1.30;;;;;;;41.87;25.73;99726.66;5133415;27;39630;-84
2022/10/17 11:14:57;;;;;;;3.35;1.50;;;;;;;41.29;26.59;99712.19;5115694;27;41696;-82
2022/10/17 11:17:34;;;;;;;2.13;1.40;;;;;;;41.70;26.82;99709.41;5114030;27;42673;-85
2022/10/17 11:20:13;;;;;;;1.58;1.38;;;;;;;42.58;25.02;99723.75;5133181;27;41426;-84
2022/10/17 11:22:45;;;;;;;4.32;1.55;;;;;;;43.65;23.54;99724.81;5115301;27;39084;-83
2022/10/17 11:25:33;;;;;;;5.45;1.35;;;;;;;44.63;21.71;99736.69;5129889;27;41744;-85
2022/10/17 11:28:02;;;;;;;2.88;1.40;;;;;;;45.38;21.62;99715.22;5115510;27;43309;-84
2022/10/17 11:30:45;;;;;;;3.13;1.40;;;;;;;45.86;20.70;99725.38;5115288;27;41667;-84
2022/10/17 11:33:18;;;;;;;1.40;1.30;;;;;;;46.63;20.29;99728.38;5130360;27;39903;-81
2022/10/17 11:35:49;;;;;;;3.58;1.50;;;;;;;47.12;20.60;99711.63;5116333;27;40584;-84
2022/10/17 11:38:24;;;;;;;2.15;1.30;;;;;;;47.56;19.40;99728.84;5116116;27;41844;-81
2022/10/17 11:40:58;;;;;;;3.13;1.77;;;;;;;47.83;19.30;99721.13;5131866;27;42179;-84
2022/10/17 11:43:31;;;;;;;2.30;1.23;;;;;;;48.33;19.29;99706.03;5116428;27;40288;-87
2022/10/17 11:46:20;;;;;;;2.58;1.40;;;;;;;48.67;19.40;99708.13;5131816;27;42095;-83
2022/10/17 11:48:58;;;;;;;2.00;1.55;;;;;;;48.56;18.78;99707.63;5133679;27;41868;-84
2022/10/17 11:51:26;;;;;;;1.48;1.38;;;;;;;47.94;18.78;99692.78;5116864;27;41557;-87
2022/10/17 11:54:02;;;;;;;3.13;1.40;;;;;;;47.66;19.08;99698.53;5133433;27;39819;-86
2022/10/17 11:56:37;;;;;;;1.70;1.50;;;;;;;47.83;19.43;99684.63;5131787;27;41618;-83
2022/10/17 11:59:36;;;;;;;3.22;1.42;;;;;;;48.47;18.14;99710.38;5116152;27;45052;-84
2022/10/17 12:02:12;;;;;;;2.28;1.50;;;;;;;49.13;17.66;99699.94;5105740;27;40991;-82
2022/10/17 12:04:47;;;;;;;2.00;1.38;;;;;;;49.58;17.05;99710.91;5133098;27;40085;-86
2022/10/17 12:07:22;;;;;;;2.00;1.42;;;;;;;49.87;17.14;99701.72;5114684;27;41652;-88
2022/10/17 12:09:55;;;;;;;2.92;1.50;;;;;;;49.72;17.73;99672.06;5115837;27;43460;-84
2022/10/17 12:12:27;;;;;;;3.78;1.40;;;;;;;49.95;17.32;99692.44;5116188;27;42094;-81
2022/10/17 12:15:26;;;;;;;4.82;1.80;;;;;;;50.06;17.52;99699.34;5116186;27;40029;-82
2022/10/17 12:17:59;;;;;;;3.38;1.38;;;;;;;50.20;17.47;99694.31;5115144;27;41984;-82
2022/10/17 12:20:32;;;;;;;2.70;1.45;;;;;;;50.00;17.11;99666.03;5115584;27;42843;-82
2022/10/17 12:23:19;;;;;;;1.27;1.15;;;;;;;49.03;17.88;99676.94;5130286;27;42256;-85
2022/10/17 12:25:52;;;;;;;1.40;1.20;;;;;;;47.25;19.50;99638.94;5132910;27;38939;-82
2022/10/17 12:28:27;;;;;;;4.72;1.48;;;;;;;45.63;20.61;99672.00;5115846;27;40939;-88
2022/10/17 12:30:58;;;;;;;2.28;1.27;;;;;;;43.96;22.72;99661.16;5115144;27;43082;-82
2022/10/17 12:33:33;;;;;;;2.35;1.48;;;;;;;42.67;23.90;99638.44;5113905;27;41302;-82
2022/10/17 12:36:44;;;;;;;2.08;1.50;;;;;;;41.64;24.50;99652.13;5128596;27;40862;-87
2022/10/17 12:42:50;;;;;;;4.72;1.40;;;;;;;39.05;27.05;99624.00;5114819;27;43932;-86
2022/10/17 12:45:50;;;;;;;2.33;1.45;;;;;;;38.26;27.85;99625.53;5115316;27;43083;-87
2022/10/17 12:48:55;;;;;;;2.83;1.40;;;;;;;37.65;29.26;99616.38;5131208;27;39943;-80
2022/10/17 12:51:26;;;;;;;3.20;1.65;;;;;;;37.31;29.24;99613.63;5114316;27;42146;-85
2022/10/17 12:53:59;;;;;;;2.37;1.03;;;;;;;37.04;30.10;99587.72;5130662;27;42008;-87
2022/10/17 12:56:36;;;;;;;2.23;1.53;;;;;;;36.90;29.35;99603.78;5114433;27;43656;-79
2022/10/17 12:59:10;;;;;;;3.27;1.40;;;;;;;37.33;29.55;99596.81;5114232;27;40147;-85
2022/10/17 13:01:40;;;;;;;1.67;1.58;;;;;;;37.75;27.90;99617.38;5116217;27;40983;-86
2022/10/17 13:04:10;;;;;;;2.88;1.80;;;;;;;37.24;28.30;99593.59;5114959;27;43305;-84
2022/10/17 13:06:46;;;;;;;1.70;1.40;;;;;;;36.47;28.90;99554.66;5114658;27;41616;-83
2022/10/17 13:09:22;;;;;;;5.13;1.60;;;;;;;36.59;29.85;99613.41;5115361;27;40382;-78
2022/10/17 13:11:51;;;;;;;2.33;1.40;;;;;;;36.55;30.35;99601.16;5114836;27;42042;-79
2022/10/17 13:14:21;;;;;;;1.80;1.43;;;;;;;36.59;29.65;99615.31;5132829;27;43742;-84
2022/10/17 13:16:55;;;;;;;2.90;1.47;;;;;;;36.66;28.83;99630.63;5132301;27;41777;-87
2022/10/17 13:19:27;;;;;;;1.77;1.60;;;;;;;37.57;28.79;99625.09;5114807;27;38715;-87
2022/10/17 13:21:59;;;;;;;2.60;1.55;;;;;;;38.57;28.08;99627.63;5132273;27;40934;-81
2022/10/17 13:24:32;;;;;;;2.20;1.27;;;;;;;39.11;26.62;99624.84;5132591;27;41632;-89
2022/10/17 13:27:01;;;;;;;1.58;1.23;;;;;;;39.81;25.65;99651.50;5115640;27;41160;-87
2022/10/17 13:29:30;;;;;;;4.50;1.42;;;;;;;39.79;25.11;99612.09;5115289;27;39178;-86
2022/10/17 13:32:02;;;;;;;2.20;1.35;;;;;;;40.10;25.60;99641.69;5115271;27;41702;-86
2022/10/17 13:34:32;;;;;;;1.45;1.35;;;;;;;40.19;26.76;99615.09;5114465;27;44124;-81
2022/10/17 13:37:05;;;;;;;1.77;1.48;;;;;;;40.53;25.83;99648.03;5129783;27;42387;-81
2022/10/17 13:39:37;;;;;;;2.90;1.50;;;;;;;40.72;25.74;99657.56;5130609;27;38981;-85
2022/10/17 13:42:05;;;;;;;3.17;1.65;;;;;;;40.81;25.25;99667.00;5117223;27;40915;-80
2022/10/17 13:44:35;;;;;;;2.33;1.48;;;;;;;40.79;25.00;99647.03;5116853;27;41724;-83
2022/10/17 13:47:03;;;;;;;1.58;1.38;;;;;;;40.68;24.73;99648.06;5134302;27;42292;-90
2022/10/17 13:49:34;;;;;;;2.55;1.25;;;;;;;40.79;24.33;99662.88;5117340;27;38955;-88
2022/10/17 13:52:06;;;;;;;3.08;1.35;;;;;;;40.80;23.30;99659.78;5131788;27;42252;-86
2022/10/17 13:54:40;;;;;;;2.78;1.25;;;;;;;40.68;22.95;99672.25;5116730;27;41914;-82
2022/10/17 13:57:19;;;;;;;2.53;1.17;;;;;;;40.39;23.99;99669.91;5131077;27;42434;-78
2022/10/17 13:59:50;;;;;;;1.40;1.30;;;;;;;40.01;24.75;99654.44;5133345;27;40224;-77
2022/10/17 14:02:21;;;;;;;1.42;1.25;;;;;;;39.74;23.99;99673.06;5116454;27;41928;-83
2022/10/17 14:05:00;;;;;;;2.05;1.40;;;;;;;39.24;24.46;99641.06;5117713;27;42231;-87
2022/10/17 14:07:36;;;;;;;1.40;1.30;;;;;;;39.06;24.38;99658.09;5117331;27;43098;-83
2022/10/17 14:10:06;;;;;;;4.47;1.33;;;;;;;38.43;24.99;99640.16;5117878;27;41644;-87
2022/10/17 14:12:34;;;;;;;1.50;1.27;;;;;;;37.82;25.40;99633.78;5117547;27;40826;-83
2022/10/17 14:15:04;;;;;;;2.63;1.50;;;;;;;37.15;26.63;99581.28;5134768;27;42675;-81
2022/10/17 14:17:32;;;;;;;4.43;1.33;;;;;;;36.82;27.41;99625.44;5135336;27;42631;-82
2022/10/17 14:20:03;;;;;;;2.70;1.90;;;;;;;36.13;27.51;99630.03;5134963;27;39918;-82
2022/10/17 14:22:35;;;;;;;2.73;1.60;;;;;;;35.59;28.51;99643.16;5117021;27;40754;-83
2022/10/17 14:25:04;;;;;;;2.80;1.57;;;;;;;34.88;29.71;99622.88;5131754;27;42791;-85
2022/10/17 14:27:35;;;;;;;1.60;1.40;;;;;;;34.25;30.28;99633.41;5117298;27;41520;-80
2022/10/17 14:30:05;;;;;;;1.77;1.40;;;;;;;33.60;31.69;99627.56;5131651;27;40004;-86
2022/10/17 14:32:36;;;;;;;1.77;1.20;;;;;;;32.94;32.20;99614.34;5132830;27;42190;-83
2022/10/17 14:35:06;;;;;;;2.07;1.97;;;;;;;32.45;32.74;99610.41;5115914;27;41981;-84
2022/10/17 14:37:43;;;;;;;3.53;2.03;;;;;;;32.08;33.54;99624.88;5134003;27;42872;-82
2022/10/17 14:40:16;;;;;;;3.93;1.90;;;;;;;31.57;34.65;99600.94;5130453;27;40916;-83
2022/10/17 14:42:46;;;;;;;1.80;1.53;;;;;;;30.97;34.41;99561.78;5116005;27;41484;-81
2022/10/17 14:45:26;;;;;;;1.47;1.37;;;;;;;30.70;35.31;99565.56;5115468;27;42098;-80
2022/10/17 14:47:57;;;;;;;1.77;1.27;;;;;;;30.48;36.36;99573.06;5116005;27;40794;-79
2022/10/17 14:50:26;;;;;;;2.63;1.50;;;;;;;30.32;36.16;99604.34;5116020;27;39738;-82
2022/10/17 14:53:07;;;;;;;2.60;1.50;;;;;;;29.99;35.91;99611.56;5132703;27;41875;-83
2022/10/17 14:55:36;;;;;;;2.40;1.90;;;;;;;29.66;35.57;99611.34;5116458;27;43276;-79
2022/10/17 14:58:16;;;;;;;2.87;1.40;;;;;;;29.38;36.09;99608.63;5132864;27;41510;-88
2022/10/17 15:00:44;;;;;;;2.57;1.30;;;;;;;29.09;36.08;99609.59;5115729;27;39397;-82
2022/10/17 15:03:12;;;;;;;2.63;1.40;;;;;;;28.83;36.33;99610.19;5133215;27;41701;-76
2022/10/17 15:09:47;;;;;;;2.87;1.37;;;;;;;28.23;37.22;99611.41;5134644;27;42043;-76
2022/10/17 15:12:16;;;;;;;1.70;1.60;;;;;;;28.01;37.46;99606.91;5130333;27;39912;-77
2022/10/17 15:14:46;;;;;;;4.30;1.60;;;;;;;27.78;37.91;99603.44;5134415;27;41886;-81
2022/10/17 15:17:17;;;;;;;1.93;1.70;;;;;;;27.59;38.79;99598.53;5115943;27;44315;-78
2022/10/17 15:19:45;;;;;;;3.87;1.80;;;;;;;27.22;39.12;99577.63;5134455;27;41158;-80
2022/10/17 15:22:12;;;;;;;2.87;1.57;;;;;;;27.16;39.55;99595.56;5133757;27;40913;-77
2022/10/17 15:24:39;;;;;;;3.30;1.70;;;;;;;27.00;40.30;99609.28;5115942;27;43844;-80
2022/10/17 15:27:15;;;;;;;5.43;1.70;;;;;;;26.74;41.08;99604.19;5134519;27;42506;-80
2022/10/17 15:29:43;;;;;;;1.43;1.20;;;;;;;26.62;41.22;99606.47;5134894;27;43119;-83
2022/10/17 15:32:27;;;;;;;3.83;1.50;;;;;;;26.17;41.37;99557.50;5116553;27;42097;-90
2022/10/17 15:34:54;;;;;;;1.57;1.47;;;;;;;26.08;41.89;99565.72;5115902;27;41227;-86
2022/10/17 15:37:25;;;;;;;3.13;1.57;;;;;;;26.02;42.63;99587.28;5115702;27;43034;-83
2022/10/17 15:44:14;;;;;;;3.03;1.77;;;;;;;25.65;44.26;99590.66;5131950;27;39167;-81
2022/10/17 15:46:42;;;;;;;3.63;1.67;;;;;;;25.50;44.39;99592.34;5114834;27;42425;-81
2022/10/17 15:49:14;;;;;;;2.53;1.60;;;;;;;25.33;44.65;99597.81;5132520;27;42863;-83
2022/10/17 15:51:42;;;;;;;1.77;1.50;;;;;;;25.20;45.05;99602.91;5115267;27;42235;-84
2022/10/17 15:54:10;;;;;;;2.23;1.40;;;;;;;25.08;45.01;99607.00;5114592;27;40445;-83
2022/10/17 15:56:41;;;;;;;3.70;2.07;;;;;;;24.87;45.83;99591.19;5115211;27;41735;-83
2022/10/17 15:59:14;;;;;;;2.37;1.90;;;;;;;24.80;46.14;99605.59;5132159;27;44233;-86
2022/10/17 16:01:46;;;;;;;3.73;1.80;;;;;;;24.58;46.50;99597.13;5134301;27;41521;-90
2022/10/17 16:04:17;;;;;;;2.77;1.70;;;;;;;24.44;47.29;99588.81;5124277;27;41285;-87
2022/10/17 16:06:57;;;;;;;2.53;1.60;;;;;;;23.93;47.40;99534.69;5117853;27;40609;-88
2022/10/17 16:09:25;;;;;;;1.87;1.63;;;;;;;23.89;47.46;99554.94;5115577;27;43776;-84
2022/10/17 16:11:52;;;;;;;1.53;1.43;;;;;;;24.12;47.60;99616.56;5115363;27;41041;-81
2022/10/17 16:14:21;;;;;;;1.43;1.30;;;;;;;23.99;47.37;99617.88;5115590;27;38853;-83
2022/10/17 16:16:49;;;;;;;1.83;1.33;;;;;;;23.86;48.03;99617.50;5115650;27;42335;-82
2022/10/17 16:19:16;;;;;;;4.60;1.80;;;;;;;23.72;48.10;99610.00;5132608;27;42709;-79
2022/10/17 16:21:44;;;;;;;3.37;1.60;;;;;;;23.59;48.48;99609.59;5132983;27;41023;-84
2022/10/17 16:24:13;;;;;;;1.63;1.30;;;;;;;23.45;48.71;99612.84;5132657;27;41583;-82
2022/10/17 16:26:41;;;;;;;3.93;1.90;;;;;;;23.32;49.30;99620.53;5133028;27;40798;-84
2022/10/17 16:29:09;;;;;;;2.30;1.43;;;;;;;23.14;49.75;99616.00;5115787;27;41679;-84
2022/10/17 16:31:43;;;;;;;1.83;1.60;;;;;;;23.07;49.93;99624.91;5115948;27;42729;-83
2022/10/17 16:34:12;;;;;;;2.10;1.77;;;;;;;22.87;50.08;99616.97;5116099;27;41326;-85
2022/10/17 16:36:40;;;;;;;2.90;1.70;;;;;;;22.69;50.70;99609.84;5115486;27;40606;-80
2022/10/17 16:39:14;;;;;;;2.53;2.00;;;;;;;22.66;51.91;99612.84;5133025;27;42711;-89
2022/10/17 16:41:43;;;;;;;4.33;2.13;;;;;;;22.55;52.75;99630.13;5133023;27;42194;-77
2022/10/17 16:44:15;;;;;;;5.40;2.23;;;;;;;22.43;53.24;99625.97;5130426;27;38828;-85
2022/10/17 16:46:44;;;;;;;4.20;1.90;;;;;;;22.34;54.31;99635.81;5113951;27;40618;-80
2022/10/17 16:49:11;;;;;;;2.90;1.87;;;;;;;22.22;53.41;99639.75;5130840;27;42118;-76
2022/10/17 16:51:39;;;;;;;3.37;1.80;;;;;;;22.12;54.19;99641.66;5114286;27;42602;-85
2022/10/17 16:54:07;;;;;;;4.03;1.90;;;;;;;22.02;54.46;99648.91;5113241;27;38651;-85
2022/10/17 16:56:34;;;;;;;3.50;1.80;;;;;;;21.92;54.58;99648.06;5132126;27;42141;-81
2022/10/17 16:59:03;;;;;;;4.83;2.03;;;;;;;21.81;54.50;99655.38;5131558;27;41530;-82
2022/10/17 17:01:30;;;;;;;2.63;1.90;;;;;;;21.68;55.32;99657.53;5134327;27;42243;-80
2022/10/17 17:04:00;;;;;;;2.23;1.70;;;;;;;21.52;54.82;99654.59;5115989;27;40036;-86
2022/10/17 17:06:29;;;;;;;2.80;1.80;;;;;;;21.51;54.91;99666.41;5115300;27;40737;-78
2022/10/17 17:08:57;;;;;;;2.90;1.90;;;;;;;21.44;54.99;99676.03;5113678;27;41773;-83
2022/10/17 17:11:28;;;;;;;3.27;2.00;;;;;;;21.32;55.78;99671.81;5132497;27;42264;-85
2022/10/17 17:13:57;;;;;;;2.30;2.00;;;;;;;21.15;56.17;99658.03;5130040;27;40880;-86
2022/10/17 17:16:26;;;;;;;2.20;1.77;;;;;;;21.16;56.23;99667.81;5116658;27;40231;-87
2022/10/17 17:18:55;;;;;;;2.40;2.20;;;;;;;21.06;57.03;99685.84;5117191;27;42511;-83
2022/10/17 17:21:25;;;;;;;2.27;2.07;;;;;;;20.91;56.84;99668.41;5134894;27;43146;-86
2022/10/17 17:23:55;;;;;;;2.73;1.87;;;;;;;20.92;57.09;99680.88;5136374;27;39695;-81
2022/10/17 17:26:23;;;;;;;3.43;2.13;;;;;;;20.84;59.93;99671.81;5134950;27;41633;-84
2022/10/17 17:28:52;;;;;;;3.73;3.23;;;;;;;20.65;59.78;99661.84;5134910;27;42492;-79
2022/10/17 17:31:22;;;;;;;4.10;2.53;;;;;;;20.66;61.75;99663.56;5135701;27;43184;-86
2022/10/17 17:33:51;;;;;;;3.77;2.63;;;;;;;20.61;61.60;99677.47;5117438;27;41497;-86
2022/10/17 17:36:21;;;;;;;3.67;2.80;;;;;;;20.35;61.73;99660.97;5134310;27;41754;-86
2022/10/17 17:38:51;;;;;;;3.70;2.47;;;;;;;20.43;60.60;99696.09;5136102;27;42517;-89
2022/10/17 17:41:20;;;;;;;3.93;2.77;;;;;;;20.39;60.22;99701.94;5136158;27;41177;-89
2022/10/17 17:43:49;;;;;;;3.10;2.80;;;;;;;20.33;60.80;99692.53;5135441;27;40876;-82
2022/10/17 17:46:19;;;;;;;4.20;2.77;;;;;;;20.29;60.81;99715.28;5118055;27;41031;-84
2022/10/17 17:48:48;;;;;;;3.60;2.43;;;;;;;20.17;60.61;99704.78;5117557;27;44149;-84
2022/10/17 17:51:19;;;;;;;2.57;2.20;;;;;;;20.16;60.42;99709.28;5118125;27;40807;-81
2022/10/17 17:53:47;;;;;;;3.50;3.20;;;;;;;19.84;60.46;99676.34;5136534;27;40751;-80
2022/10/17 17:56:19;;;;;;;4.47;2.70;;;;;;;19.99;60.74;99713.50;5135504;27;40897;-88
2022/10/17 17:58:52;;;;;;;3.10;2.00;;;;;;;19.95;60.35;99721.94;5134972;27;41867;-87
2022/10/17 18:01:23;;;;;;;2.07;1.90;;;;;;;19.89;60.49;99717.13;5135321;27;41331;-87
2022/10/17 18:03:52;;;;;;;2.30;2.00;;;;;;;19.83;60.31;99733.78;5135430;27;39730;-85
2022/10/17 18:06:21;;;;;;;3.43;1.87;;;;;;;19.76;60.51;99728.09;5117904;27;41212;-84
2022/10/17 18:08:50;;;;;;;3.27;2.20;;;;;;;19.71;61.40;99735.69;5134542;27;42482;-84
2022/10/17 18:11:20;;;;;;;2.53;2.33;;;;;;;19.63;61.06;99722.91;5116661;27;41492;-87
2022/10/17 18:13:48;;;;;;;3.57;1.93;;;;;;;19.53;61.22;99726.53;5116861;27;38591;-86
2022/10/17 18:16:15;;;;;;;3.90;2.00;;;;;;;19.25;61.04;99685.88;5134124;27;43489;-85
2022/10/17 18:18:45;;;;;;;3.60;2.63;;;;;;;19.43;61.35;99722.88;5117472;27;42065;-83
2022/10/17 18:21:13;;;;;;;4.43;3.10;;;;;;;19.23;61.68;99700.41;5136023;27;42441;-85
2022/10/17 18:23:43;;;;;;;2.93;2.57;;;;;;;19.30;61.74;99731.97;5134902;27;38959;-83
2022/10/17 18:26:13;;;;;;;3.27;2.60;;;;;;;19.26;62.20;99735.06;5117191;27;40946;-88
2022/10/17 18:28:43;;;;;;;2.23;2.13;;;;;;;19.21;62.35;99731.91;5134705;27;41860;-82
2022/10/17 18:31:14;;;;;;;2.27;2.07;;;;;;;19.16;62.35;99734.16;5117198;27;40854;-86
2022/10/17 18:33:43;;;;;;;2.60;2.40;;;;;;;19.05;62.82;99720.72;5134506;27;41175;-85
2022/10/17 18:36:14;;;;;;;2.53;2.33;;;;;;;19.08;63.17;99731.22;5134595;27;42976;-86
2022/10/17 18:38:42;;;;;;;5.07;2.60;;;;;;;19.03;63.76;99734.31;5118402;27;42770;-82
2022/10/17 18:41:11;;;;;;;3.77;3.33;;;;;;;18.96;63.88;99733.97;5134677;27;42444;-82
2022/10/17 18:43:41;;;;;;;3.30;3.03;;;;;;;18.92;64.08;99732.50;5135515;27;40347;-80
2022/10/17 18:46:11;;;;;;;3.13;2.23;;;;;;;18.89;64.04;99737.28;5134758;27;41740;-84
2022/10/17 18:48:40;;;;;;;4.50;2.40;;;;;;;18.77;64.18;99727.56;5117277;27;43541;-80
2022/10/17 18:51:08;;;;;;;4.17;2.63;;;;;;;18.81;64.23;99740.59;5135003;27;42282;-88
2022/10/17 18:53:39;;;;;;;2.83;2.63;;;;;;;18.79;65.03;99737.19;5116808;27;39094;-82
2022/10/17 18:56:08;;;;;;;2.97;2.67;;;;;;;18.76;64.97;99742.81;5131443;27;41670;-85
2022/10/17 18:58:37;;;;;;;7.00;3.30;;;;;;;18.66;65.88;99731.13;5133494;27;43985;-82
2022/10/17 19:01:06;;;;;;;4.03;3.40;;;;;;;18.70;67.18;99737.94;5133092;27;41127;-82
2022/10/17 19:03:35;;;;;;;5.27;2.63;;;;;;;18.67;67.02;99744.41;5133639;27;40243;-88